createdAt,value
2022-10-26T00:01:44.218Z,20.40
2022-10-26T00:04:29.673Z,19.48
2022-10-26T00:07:15.335Z,14.20
2022-10-26T00:10:01.182Z,19.65
2022-10-26T00:12:50.108Z,16.85
2022-10-26T00:15:39.363Z,21.45
2022-10-26T00:18:25.469Z,17.35
2022-10-26T00:21:11.267Z,18.20
2022-10-26T00:23:58.773Z,18.38
2022-10-26T00:26:44.147Z,11.55
2022-10-26T00:29:29.931Z,14.80
2022-10-26T00:32:15.271Z,15.10
2022-10-26T00:35:10.513Z,15.82
2022-10-26T00:40:55.123Z,25.75
2022-10-26T00:43:41.799Z,24.50
2022-10-26T00:46:35.087Z,17.98
2022-10-26T00:49:21.059Z,19.13
2022-10-26T00:52:08.619Z,20.02
2022-10-26T00:54:54.518Z,19.30
2022-10-26T00:57:40.085Z,16.27
2022-10-26T01:00:25.492Z,15.15
2022-10-26T01:03:11.323Z,19.90
2022-10-26T01:05:58.163Z,19.88
2022-10-26T01:08:44.286Z,19.17
2022-10-26T01:11:29.902Z,21.13
2022-10-26T01:14:17.796Z,17.52
2022-10-26T01:17:13.737Z,22.30
2022-10-26T01:20:20.679Z,22.25
2022-10-26T01:23:24.449Z,16.85
2022-10-26T01:26:40.273Z,18.52
2022-10-26T01:29:25.392Z,22.00
2022-10-26T01:32:15.801Z,20.02
2022-10-26T01:35:22.737Z,17.33
2022-10-26T01:38:25.439Z,23.38
2022-10-26T01:41:37.754Z,17.35
2022-10-26T01:44:43.766Z,17.45
2022-10-26T01:47:32.803Z,17.88
2022-10-26T01:50:19.876Z,18.77
2022-10-26T01:53:05.723Z,15.85
2022-10-26T01:55:55.499Z,19.52
2022-10-26T01:58:59.180Z,17.15
2022-10-26T02:01:54.015Z,21.33
2022-10-26T02:04:51.119Z,20.77
2022-10-26T02:08:19.661Z,17.00
2022-10-26T02:11:15.245Z,29.92
2022-10-26T02:17:26.627Z,21.65
2022-10-26T02:20:24.035Z,20.15
2022-10-26T02:23:12.136Z,18.25
2022-10-26T02:25:59.942Z,24.42
2022-10-26T02:28:49.710Z,21.00
2022-10-26T02:31:36.495Z,18.80
2022-10-26T02:34:27.061Z,14.50
2022-10-26T02:37:19.748Z,21.08
2022-10-26T02:40:11.272Z,25.67
2022-10-26T02:43:01.880Z,25.17
2022-10-26T02:45:52.055Z,18.42
2022-10-26T02:48:38.366Z,22.17
2022-10-26T02:54:40.135Z,21.50
2022-10-26T02:57:47.617Z,19.55
2022-10-26T03:00:33.168Z,19.63
2022-10-26T03:03:22.560Z,22.75
2022-10-26T03:06:07.876Z,19.90
2022-10-26T03:08:55.451Z,21.52
2022-10-26T03:11:40.750Z,16.63
2022-10-26T03:14:26.352Z,17.08
2022-10-26T03:17:11.611Z,19.65
2022-10-26T03:19:57.159Z,22.45
2022-10-26T03:22:42.606Z,24.48
2022-10-26T03:25:31.208Z,18.83
2022-10-26T03:28:16.727Z,19.65
2022-10-26T03:31:02.228Z,18.40
2022-10-26T03:33:47.844Z,25.77
2022-10-26T03:36:33.988Z,18.27
2022-10-26T03:39:19.635Z,21.77
2022-10-26T03:42:05.139Z,19.10
2022-10-26T03:44:50.303Z,21.08
2022-10-26T03:47:47.758Z,18.88
2022-10-26T03:50:33.033Z,15.05
2022-10-26T03:53:18.560Z,17.95
2022-10-26T03:56:04.504Z,20.33
2022-10-26T03:58:54.041Z,17.02
2022-10-26T04:01:40.090Z,20.13
2022-10-26T04:04:25.893Z,18.40
2022-10-26T04:07:11.120Z,15.95
2022-10-26T04:09:56.621Z,16.05
2022-10-26T04:12:42.198Z,17.02
2022-10-26T04:15:27.999Z,22.15
2022-10-26T04:18:16.067Z,15.85
2022-10-26T04:21:02.325Z,22.17
2022-10-26T04:23:47.635Z,18.23
2022-10-26T04:26:33.063Z,15.52
2022-10-26T04:29:18.676Z,19.33
2022-10-26T04:32:04.331Z,20.23
2022-10-26T04:34:55.612Z,20.33
2022-10-26T04:37:41.201Z,16.38
2022-10-26T04:40:30.498Z,19.67
2022-10-26T04:43:16.267Z,18.15
2022-10-26T04:46:01.578Z,15.82
2022-10-26T04:48:48.825Z,21.52
2022-10-26T04:51:34.249Z,18.23
2022-10-26T04:54:20.361Z,18.05
2022-10-26T04:57:06.373Z,20.30
2022-10-26T04:59:54.239Z,15.35
2022-10-26T05:02:42.495Z,21.88
2022-10-26T05:05:28.711Z,16.67
2022-10-26T05:08:14.761Z,21.33
2022-10-26T05:11:00.483Z,22.85
2022-10-26T05:13:48.011Z,13.50
2022-10-26T05:16:37.412Z,15.27
2022-10-26T05:19:25.559Z,16.00
2022-10-26T05:22:11.306Z,13.18
2022-10-26T05:24:57.043Z,15.30
2022-10-26T05:27:47.333Z,11.98
2022-10-26T05:30:33.011Z,16.13
2022-10-26T05:33:18.399Z,14.07
2022-10-26T05:36:04.048Z,18.20
2022-10-26T05:38:49.213Z,16.70
2022-10-26T05:41:34.832Z,14.55
2022-10-26T05:44:20.396Z,15.90
2022-10-26T05:47:07.740Z,16.83
2022-10-26T05:49:53.196Z,13.05
2022-10-26T05:52:43.357Z,16.75
2022-10-26T05:55:29.398Z,14.88
2022-10-26T05:58:15.896Z,21.95
2022-10-26T06:01:28.964Z,16.52
2022-10-26T06:04:33.014Z,11.38
2022-10-26T06:07:22.698Z,12.85
2022-10-26T06:10:10.647Z,17.30
2022-10-26T06:12:56.569Z,17.02
2022-10-26T06:16:17.971Z,15.35
2022-10-26T06:19:21.859Z,12.70
2022-10-26T06:22:28.748Z,12.88
2022-10-26T06:25:26.224Z,14.32
2022-10-26T06:28:38.523Z,18.48
2022-10-26T06:31:27.618Z,14.93
2022-10-26T06:34:21.203Z,21.92
2022-10-26T06:37:08.296Z,13.05
2022-10-26T06:39:55.776Z,10.18
2022-10-26T06:42:41.823Z,21.30
2022-10-26T06:45:27.734Z,10.68
2022-10-26T06:48:20.052Z,9.85
2022-10-26T06:51:05.744Z,12.48
2022-10-26T06:54:07.075Z,17.67
2022-10-26T06:56:59.267Z,9.70
2022-10-26T06:59:53.675Z,12.85
2022-10-26T07:02:39.177Z,18.67
2022-10-26T07:05:24.530Z,13.73
2022-10-26T07:08:10.004Z,19.85
2022-10-26T07:10:58.658Z,12.63
2022-10-26T07:13:44.272Z,10.88
2022-10-26T07:16:29.699Z,16.73
2022-10-26T07:19:15.290Z,14.30
2022-10-26T07:22:01.212Z,10.15
2022-10-26T07:24:50.475Z,9.48
2022-10-26T07:27:35.877Z,14.75
2022-10-26T07:30:21.504Z,11.15
2022-10-26T07:33:10.205Z,16.02
2022-10-26T07:35:56.046Z,15.65
2022-10-26T07:38:44.217Z,10.35
2022-10-26T07:41:30.292Z,12.48
2022-10-26T07:44:15.608Z,9.57
2022-10-26T07:47:01.058Z,13.93
2022-10-26T07:49:50.204Z,7.47
2022-10-26T07:52:36.993Z,9.50
2022-10-26T07:55:22.276Z,8.60
2022-10-26T07:58:07.763Z,12.55
2022-10-26T08:00:57.293Z,9.75
2022-10-26T08:03:45.600Z,11.90
2022-10-26T08:06:30.853Z,12.55
2022-10-26T08:09:16.637Z,11.77
2022-10-26T08:12:01.940Z,11.30
2022-10-26T08:14:47.497Z,9.95
2022-10-26T08:17:33.316Z,9.68
2022-10-26T08:20:21.645Z,11.15
2022-10-26T08:23:08.816Z,15.43
2022-10-26T08:25:58.710Z,11.05
2022-10-26T08:28:44.441Z,7.65
2022-10-26T08:31:30.008Z,9.20
2022-10-26T08:34:16.711Z,8.90
2022-10-26T08:37:02.695Z,12.88
2022-10-26T08:39:53.974Z,6.70
2022-10-26T08:42:45.321Z,7.07
2022-10-26T08:45:38.678Z,12.00
2022-10-26T08:48:33.935Z,8.00
2022-10-26T08:51:25.174Z,8.05
2022-10-26T08:54:38.889Z,10.55
2022-10-26T08:57:33.844Z,10.13
2022-10-26T09:00:22.334Z,17.88
2022-10-26T09:03:15.329Z,8.50
2022-10-26T09:06:25.145Z,10.35
2022-10-26T09:09:38.652Z,10.43
2022-10-26T09:12:53.406Z,16.77
2022-10-26T09:16:00.482Z,11.95
2022-10-26T09:18:53.487Z,12.60
2022-10-26T09:21:48.707Z,7.78
2022-10-26T09:24:42.421Z,13.20
2022-10-26T09:27:30.424Z,7.85
2022-10-26T09:30:19.418Z,9.75
2022-10-26T09:33:16.815Z,8.82
2022-10-26T09:36:18.592Z,8.82
2022-10-26T09:39:28.143Z,9.73
2022-10-26T09:42:25.899Z,8.25
2022-10-26T09:45:49.555Z,8.60
2022-10-26T09:48:51.389Z,11.52
2022-10-26T09:51:39.059Z,10.07
2022-10-26T09:54:24.655Z,6.72
2022-10-26T09:57:15.119Z,9.80
2022-10-26T10:00:00.943Z,12.20
2022-10-26T10:02:53.953Z,9.25
2022-10-26T10:05:50.711Z,8.57
2022-10-26T10:08:37.233Z,10.35
2022-10-26T10:11:22.925Z,8.30
2022-10-26T10:14:14.859Z,15.32
2022-10-26T10:17:04.051Z,9.65
2022-10-26T10:19:49.930Z,9.50
2022-10-26T10:22:35.421Z,12.60
2022-10-26T10:25:33.313Z,8.63
2022-10-26T10:28:27.415Z,12.15
2022-10-26T10:31:27.694Z,11.70
2022-10-26T10:34:19.507Z,15.05
2022-10-26T10:37:27.293Z,7.32
2022-10-26T10:40:23.284Z,6.72
2022-10-26T10:43:14.460Z,11.00
2022-10-26T10:46:00.494Z,7.18
2022-10-26T10:48:54.343Z,6.40
2022-10-26T10:51:43.284Z,10.23
2022-10-26T10:54:37.655Z,14.75
2022-10-26T10:57:42.107Z,7.33
2022-10-26T11:00:35.829Z,7.45
2022-10-26T11:03:38.530Z,11.63
2022-10-26T11:06:29.008Z,7.45
2022-10-26T11:09:20.940Z,7.13
2022-10-26T11:12:20.054Z,5.75
2022-10-26T11:15:13.266Z,7.45
2022-10-26T11:18:21.045Z,8.60
2022-10-26T11:21:26.288Z,9.18
2022-10-26T11:24:24.078Z,10.23
2022-10-26T11:27:17.511Z,7.53
2022-10-26T11:30:10.949Z,10.75
2022-10-26T11:33:18.891Z,10.75
2022-10-26T11:36:08.971Z,5.65
2022-10-26T11:38:59.957Z,7.32
2022-10-26T11:42:01.595Z,8.13
2022-10-26T11:45:03.144Z,15.25
2022-10-26T11:47:53.111Z,6.78
2022-10-26T11:50:55.191Z,7.25
2022-10-26T11:53:42.848Z,6.90
2022-10-26T11:56:39.568Z,7.70
2022-10-26T11:59:33.079Z,7.60
2022-10-26T12:02:26.130Z,10.95
2022-10-26T12:05:40.100Z,7.82
2022-10-26T12:08:36.224Z,6.05
2022-10-26T12:11:45.267Z,9.18
2022-10-26T12:14:44.326Z,5.95
2022-10-26T12:17:42.672Z,5.72
2022-10-26T12:20:54.204Z,6.70
2022-10-26T12:23:56.238Z,11.95
2022-10-26T12:26:52.902Z,8.43
2022-10-26T12:29:39.764Z,7.00
2022-10-26T12:32:28.196Z,12.30
2022-10-26T12:35:35.918Z,6.93
2022-10-26T12:38:24.464Z,6.63
2022-10-26T12:41:23.290Z,8.25
2022-10-26T12:44:39.610Z,4.25
2022-10-26T12:47:27.914Z,8.02
2022-10-26T12:50:13.471Z,6.78
2022-10-26T12:53:10.414Z,12.23
2022-10-26T12:56:05.922Z,10.13
2022-10-26T12:59:04.924Z,9.85
2022-10-26T13:02:10.545Z,7.90
2022-10-26T13:05:26.760Z,10.63
2022-10-26T13:08:14.484Z,14.07
2022-10-26T13:11:15.048Z,7.93
2022-10-26T13:14:05.103Z,6.68
2022-10-26T13:16:51.015Z,7.82
2022-10-26T13:19:44.985Z,6.20
2022-10-26T13:22:33.029Z,8.02
2022-10-26T13:25:26.015Z,8.75
2022-10-26T13:28:29.940Z,9.40
2022-10-26T13:31:29.664Z,8.53
2022-10-26T13:34:18.163Z,6.55
2022-10-26T13:37:23.075Z,13.95
2022-10-26T13:40:11.899Z,9.15
2022-10-26T13:43:02.309Z,7.72
2022-10-26T13:45:55.811Z,8.63
2022-10-26T13:48:42.082Z,6.63
2022-10-26T13:51:42.768Z,7.85
2022-10-26T13:54:37.053Z,7.60
2022-10-26T13:57:42.981Z,11.07
2022-10-26T14:00:28.267Z,10.40
2022-10-26T14:03:18.563Z,6.07
2022-10-26T14:06:22.928Z,6.03
2022-10-26T14:09:15.498Z,6.87
2022-10-26T14:12:02.653Z,8.05
2022-10-26T14:14:48.431Z,9.93
2022-10-26T14:17:34.728Z,10.07
2022-10-26T14:20:22.735Z,12.55
2022-10-26T14:23:29.475Z,5.07
2022-10-26T14:26:39.251Z,9.00
2022-10-26T14:29:27.314Z,12.55
2022-10-26T14:32:30.688Z,7.35
2022-10-26T14:35:42.706Z,7.45
2022-10-26T14:38:33.981Z,11.82
2022-10-26T14:41:25.454Z,11.32
2022-10-26T14:44:21.080Z,8.45
2022-10-26T14:47:21.747Z,9.93
2022-10-26T14:50:17.636Z,10.93
2022-10-26T14:53:13.571Z,14.23
2022-10-26T14:55:59.290Z,7.80
2022-10-26T14:58:44.788Z,7.45
2022-10-26T15:01:33.372Z,8.70
2022-10-26T15:04:32.119Z,7.38
2022-10-26T15:07:18.746Z,10.60
2022-10-26T15:10:05.895Z,7.60
2022-10-26T15:12:51.349Z,10.10
2022-10-26T15:15:39.621Z,8.07
2022-10-26T15:18:28.536Z,9.02
2022-10-26T15:21:32.659Z,9.32
2022-10-26T15:24:20.773Z,6.70
2022-10-26T15:27:20.782Z,14.57
2022-10-26T15:30:27.945Z,10.18
2022-10-26T15:33:21.844Z,5.43
2022-10-26T15:36:15.507Z,9.65
2022-10-26T15:39:01.068Z,6.40
2022-10-26T15:41:47.967Z,11.80
2022-10-26T15:44:33.572Z,10.80
2022-10-26T15:47:22.700Z,9.45
2022-10-26T15:50:13.539Z,6.47
2022-10-26T15:53:01.498Z,11.07
2022-10-26T15:55:48.199Z,11.15
2022-10-26T15:58:33.548Z,10.20
2022-10-26T16:01:27.683Z,8.50
2022-10-26T16:04:13.236Z,13.13
2022-10-26T16:07:01.350Z,9.50
2022-10-26T16:09:46.711Z,13.35
2022-10-26T16:12:32.166Z,14.30
2022-10-26T16:15:20.111Z,10.75
2022-10-26T16:18:05.967Z,11.70
2022-10-26T16:20:51.207Z,12.23
2022-10-26T16:23:36.697Z,9.88
2022-10-26T16:26:23.436Z,9.68
2022-10-26T16:29:08.797Z,13.10
2022-10-26T16:31:54.514Z,10.32
2022-10-26T16:34:40.004Z,8.52
2022-10-26T16:37:31.458Z,8.43
2022-10-26T16:40:17.354Z,10.13
2022-10-26T16:43:02.546Z,11.35
2022-10-26T16:45:48.174Z,8.48
2022-10-26T16:48:35.936Z,11.10
2022-10-26T16:51:29.487Z,8.70
2022-10-26T16:54:15.201Z,14.45
2022-10-26T16:57:00.517Z,16.77
2022-10-26T16:59:45.944Z,15.75
2022-10-26T17:02:32.323Z,8.98
2022-10-26T17:05:17.785Z,9.50
2022-10-26T17:08:06.944Z,10.35
2022-10-26T17:10:53.244Z,11.45
2022-10-26T17:13:39.840Z,8.93
2022-10-26T17:16:25.598Z,13.52
2022-10-26T17:19:11.714Z,11.10
2022-10-26T17:21:56.877Z,12.07
2022-10-26T17:24:42.563Z,12.93
2022-10-26T17:27:27.821Z,10.48
2022-10-26T17:30:14.132Z,12.38
2022-10-26T17:32:59.497Z,8.13
2022-10-26T17:35:45.027Z,8.27
2022-10-26T17:38:35.630Z,14.00
2022-10-26T17:41:22.582Z,14.90
2022-10-26T17:44:08.331Z,12.45
2022-10-26T17:46:53.663Z,14.23
2022-10-26T17:49:39.041Z,19.02
2022-10-26T17:52:25.182Z,12.93
2022-10-26T17:55:13.336Z,10.93
2022-10-26T17:57:58.479Z,13.40
2022-10-26T18:00:47.910Z,10.77
2022-10-26T18:03:36.369Z,13.57
2022-10-26T18:06:22.762Z,15.98
2022-10-26T18:09:08.119Z,16.02
2022-10-26T18:11:55.126Z,9.70
2022-10-26T18:14:41.152Z,15.38
2022-10-26T18:17:29.307Z,14.32
2022-10-26T18:20:20.377Z,10.07
2022-10-26T18:23:09.241Z,13.07
2022-10-26T18:26:21.707Z,10.75
2022-10-26T18:29:07.444Z,13.07
2022-10-26T18:31:52.658Z,11.85
2022-10-26T18:34:38.153Z,13.52
2022-10-26T18:37:23.596Z,11.68
2022-10-26T18:40:09.543Z,13.27
2022-10-26T18:42:55.345Z,15.35
2022-10-26T18:45:40.903Z,16.88
2022-10-26T18:48:26.864Z,16.00
2022-10-26T18:51:15.376Z,19.08
2022-10-26T18:54:01.404Z,16.48
2022-10-26T18:56:46.650Z,14.93
2022-10-26T18:59:32.350Z,18.38
2022-10-26T19:02:17.608Z,10.25
2022-10-26T19:05:03.444Z,11.55
2022-10-26T19:07:48.675Z,14.07
2022-10-26T19:10:37.337Z,14.32
2022-10-26T19:13:22.874Z,17.77
2022-10-26T19:16:33.565Z,15.50
2022-10-26T19:19:27.022Z,14.75
2022-10-26T19:22:12.132Z,17.63
2022-10-26T19:24:57.664Z,15.73
2022-10-26T19:27:55.379Z,17.17
2022-10-26T19:30:40.769Z,12.68
2022-10-26T19:33:27.323Z,17.98
2022-10-26T19:36:13.155Z,16.13
2022-10-26T19:38:59.096Z,12.85
2022-10-26T19:41:51.310Z,14.65
2022-10-26T19:44:36.493Z,15.85
2022-10-26T19:47:22.118Z,16.20
2022-10-26T19:50:08.221Z,19.92
2022-10-26T19:52:53.936Z,14.27
2022-10-26T19:55:43.688Z,10.30
2022-10-26T19:58:31.414Z,17.90
2022-10-26T20:01:19.539Z,17.23
2022-10-26T20:04:06.179Z,16.58
2022-10-26T20:06:51.533Z,14.40
2022-10-26T20:09:36.759Z,18.02
2022-10-26T20:12:22.191Z,10.90
2022-10-26T20:15:08.620Z,17.67
2022-10-26T20:18:00.535Z,19.10
2022-10-26T20:20:46.451Z,15.25
2022-10-26T20:23:31.923Z,11.73
2022-10-26T20:26:19.973Z,16.30
2022-10-26T20:29:05.756Z,13.52
2022-10-26T20:31:55.828Z,14.43
2022-10-26T20:34:49.935Z,15.88
2022-10-26T20:37:35.817Z,16.40
2022-10-26T20:40:21.655Z,14.80
2022-10-26T20:43:09.870Z,16.10
2022-10-26T20:45:56.266Z,20.40
2022-10-26T20:48:42.075Z,18.02
2022-10-26T20:51:44.532Z,13.55
2022-10-26T20:54:48.426Z,15.07
2022-10-26T20:57:36.995Z,12.65
2022-10-26T21:00:30.003Z,15.23
2022-10-26T21:03:15.350Z,12.30
2022-10-26T21:06:00.677Z,14.63
2022-10-26T21:08:49.800Z,18.85
2022-10-26T21:11:35.475Z,12.68
2022-10-26T21:14:24.738Z,13.93
2022-10-26T21:17:15.434Z,13.68
2022-10-26T21:20:00.924Z,17.30
2022-10-26T21:22:46.358Z,15.18
2022-10-26T21:25:33.180Z,14.35
2022-10-26T21:28:21.471Z,18.48
2022-10-26T21:31:09.083Z,15.18
2022-10-26T21:33:55.168Z,15.15
2022-10-26T21:36:40.712Z,20.45
2022-10-26T21:39:26.174Z,17.65
2022-10-26T21:42:11.592Z,11.10
2022-10-26T21:44:57.429Z,20.55
2022-10-26T21:47:42.855Z,15.05
2022-10-26T21:50:28.128Z,18.55
2022-10-26T21:53:13.810Z,19.08
2022-10-26T21:56:09.753Z,15.07
2022-10-26T21:58:55.195Z,19.50
2022-10-26T22:01:43.276Z,19.23
2022-10-26T22:04:29.004Z,17.25
2022-10-26T22:07:14.452Z,15.95
2022-10-26T22:10:10.225Z,15.85
2022-10-26T22:12:58.239Z,13.93
2022-10-26T22:15:44.031Z,14.85
2022-10-26T22:18:29.438Z,16.00
2022-10-26T22:21:16.595Z,13.90
2022-10-26T22:24:02.178Z,18.58
2022-10-26T22:26:47.468Z,13.55
2022-10-26T22:29:33.255Z,15.77
2022-10-26T22:32:18.625Z,15.68
2022-10-26T22:35:17.496Z,15.65
2022-10-26T22:38:09.195Z,17.30
2022-10-26T22:40:55.689Z,13.05
2022-10-26T22:43:41.296Z,15.60
2022-10-26T22:46:28.664Z,16.15
2022-10-26T22:49:14.290Z,16.88
2022-10-26T22:51:59.628Z,14.95
2022-10-26T22:54:44.808Z,17.60
2022-10-26T22:57:30.610Z,9.20
2022-10-26T23:00:16.426Z,14.85
2022-10-26T23:03:01.977Z,12.23
2022-10-26T23:05:48.436Z,12.07
2022-10-26T23:08:34.339Z,15.88
2022-10-26T23:11:22.130Z,17.13
2022-10-26T23:14:11.079Z,15.10
2022-10-26T23:16:56.320Z,15.23
2022-10-26T23:19:41.937Z,12.30
2022-10-26T23:22:27.294Z,17.30
2022-10-26T23:25:13.047Z,15.13
2022-10-26T23:27:58.409Z,14.05
2022-10-26T23:30:47.212Z,11.15
2022-10-26T23:33:33.287Z,14.00
2022-10-26T23:36:19.730Z,14.02
2022-10-26T23:39:04.965Z,12.65
2022-10-26T23:41:50.541Z,15.25
2022-10-26T23:44:35.920Z,15.80
2022-10-26T23:47:21.468Z,12.32
2022-10-26T23:50:07.468Z,13.27
2022-10-26T23:52:52.992Z,14.52
2022-10-26T23:55:39.336Z,9.57
2022-10-26T23:58:24.591Z,14.45
